createdAt,value
2019-03-16T00:01:00.410Z,100206.75
2019-03-16T00:03:45.178Z,100240.73
2019-03-16T00:06:29.512Z,100214.55
2019-03-16T00:09:13.246Z,100231.16
2019-03-16T00:11:56.896Z,100223.13
2019-03-16T00:14:29.375Z,100247.27
2019-03-16T00:17:23.306Z,100221.06
2019-03-16T00:19:59.498Z,100260.30
2019-03-16T00:22:43.711Z,100271.97
2019-03-16T00:25:28.855Z,100253.27
2019-03-16T00:28:13.291Z,100271.00
2019-03-16T00:30:56.807Z,100245.44
2019-03-16T00:33:40.488Z,100246.77
2019-03-16T00:36:24.581Z,100262.97
2019-03-16T00:39:09.480Z,100255.54
2019-03-16T00:41:54.815Z,100262.04
2019-03-16T00:44:38.395Z,100277.05
2019-03-16T00:47:22.951Z,100275.28
2019-03-16T00:50:07.380Z,100300.94
2019-03-16T00:52:50.981Z,100284.20
2019-03-16T00:55:35.450Z,100322.47
2019-03-16T00:58:19.764Z,100295.95
2019-03-16T01:01:05.124Z,100296.35
2019-03-16T01:03:48.714Z,100296.30
2019-03-16T01:06:32.587Z,100337.05
2019-03-16T01:09:16.487Z,100314.11
2019-03-16T01:11:48.727Z,100347.27
2019-03-16T01:14:34.392Z,100341.08
2019-03-16T01:17:18.756Z,100315.66
2019-03-16T01:20:03.692Z,100332.11
2019-03-16T01:22:35.847Z,100348.11
2019-03-16T01:25:19.408Z,100349.55
2019-03-16T01:28:02.977Z,100327.30
2019-03-16T01:30:46.596Z,100354.41
2019-03-16T01:33:30.825Z,100343.41
2019-03-16T01:36:03.044Z,100363.96
2019-03-16T01:38:47.458Z,100329.93
2019-03-16T01:41:32.506Z,100358.58
2019-03-16T01:44:18.308Z,100328.56
2019-03-16T01:46:50.504Z,100363.45
2019-03-16T01:49:34.777Z,100373.05
2019-03-16T01:52:19.728Z,100355.19
2019-03-16T01:55:04.043Z,100381.35
2019-03-16T01:57:47.984Z,100363.88
2019-03-16T02:00:32.364Z,100364.78
2019-03-16T02:03:17.443Z,100386.75
2019-03-16T02:06:00.965Z,100357.88
2019-03-16T02:08:33.627Z,100388.84
2019-03-16T02:11:17.656Z,100357.58
2019-03-16T02:14:02.907Z,100356.93
2019-03-16T02:19:50.049Z,100355.84
2019-03-16T02:22:35.493Z,100364.75
2019-03-16T02:25:19.498Z,100367.19
2019-03-16T02:28:04.099Z,100389.41
2019-03-16T02:30:48.527Z,100369.50
2019-03-16T02:33:32.180Z,100397.63
2019-03-16T02:36:17.099Z,100378.33
2019-03-16T02:39:01.702Z,100385.97
2019-03-16T02:41:47.172Z,100388.89
2019-03-16T02:44:30.871Z,100425.34
2019-03-16T02:47:15.434Z,100431.54
2019-03-16T02:49:59.035Z,100427.81
2019-03-16T02:52:43.278Z,100412.53
2019-03-16T02:55:27.380Z,100412.03
2019-03-16T02:57:59.944Z,100444.33
2019-03-16T03:00:45.487Z,100437.23
2019-03-16T03:03:30.342Z,100443.87
2019-03-16T03:06:14.542Z,100430.25
2019-03-16T03:08:58.845Z,100432.33
2019-03-16T03:11:46.813Z,100432.52
2019-03-16T03:14:31.905Z,100445.77
2019-03-16T03:17:16.348Z,100459.77
2019-03-16T03:19:49.334Z,100469.33
2019-03-16T03:22:33.634Z,100469.57
2019-03-16T03:25:17.805Z,100440.81
2019-03-16T03:28:02.517Z,100442.56
2019-03-16T03:30:47.891Z,100479.09
2019-03-16T03:33:57.573Z,100453.42
2019-03-16T03:36:18.879Z,100470.25
2019-03-16T03:39:03.278Z,100486.56
2019-03-16T03:41:47.919Z,100469.50
2019-03-16T03:44:33.014Z,100488.66
2019-03-16T03:47:18.221Z,100451.81
2019-03-16T03:50:04.720Z,100475.69
2019-03-16T03:52:49.600Z,100451.16
2019-03-16T03:55:33.340Z,100481.86
2019-03-16T03:58:16.953Z,100446.47
2019-03-16T04:01:00.841Z,100472.81
2019-03-16T04:03:46.351Z,100461.03
2019-03-16T04:06:30.645Z,100485.89
2019-03-16T04:09:14.633Z,100484.42
2019-03-16T04:11:58.131Z,100489.52
2019-03-16T04:14:43.810Z,100490.28
2019-03-16T04:17:17.141Z,100486.28
2019-03-16T04:19:49.880Z,100487.40
2019-03-16T04:28:43.152Z,100476.67
2019-03-16T04:31:26.709Z,100468.58
2019-03-16T04:34:11.889Z,100466.64
2019-03-16T04:36:56.824Z,100497.80
2019-03-16T04:39:41.738Z,100471.83
2019-03-16T04:42:26.287Z,100472.20
2019-03-16T04:45:11.447Z,100482.88
2019-03-16T04:47:54.985Z,100483.50
2019-03-16T04:50:39.081Z,100484.63
2019-03-16T04:53:11.278Z,100517.12
2019-03-16T04:55:55.587Z,100517.80
2019-03-16T04:58:39.476Z,100501.48
2019-03-16T05:01:25.094Z,100517.48
2019-03-16T05:04:09.121Z,100494.57
2019-03-16T05:06:55.288Z,100527.89
2019-03-16T05:09:41.038Z,100504.61
2019-03-16T05:12:24.779Z,100501.05
2019-03-16T05:15:09.639Z,100539.88
2019-03-16T05:17:55.606Z,100541.19
2019-03-16T05:20:39.423Z,100515.36
2019-03-16T05:23:23.001Z,100541.83
2019-03-16T05:26:06.854Z,100511.47
2019-03-16T05:28:50.435Z,100525.88
2019-03-16T05:31:34.823Z,100520.07
2019-03-16T05:34:18.850Z,100514.23
2019-03-16T05:37:03.259Z,100538.94
2019-03-16T05:39:47.351Z,100544.50
2019-03-16T05:42:32.695Z,100536.17
2019-03-16T05:45:20.176Z,100544.77
2019-03-16T05:48:04.724Z,100515.89
2019-03-16T05:50:53.892Z,100511.34
2019-03-16T05:53:38.575Z,100508.45
2019-03-16T05:56:12.092Z,100534.78
2019-03-16T06:02:01.956Z,100522.36
2019-03-16T06:04:46.578Z,100516.85
2019-03-16T06:07:30.850Z,100516.87
2019-03-16T06:10:15.598Z,100543.16
2019-03-16T06:13:03.555Z,100518.77
2019-03-16T06:15:36.036Z,100540.73
2019-03-16T06:18:26.871Z,100514.68
2019-03-16T06:21:32.976Z,100524.27
2019-03-16T06:24:21.297Z,100521.01
2019-03-16T06:27:06.389Z,100518.42
2019-03-16T06:29:50.663Z,100535.37
2019-03-16T06:32:34.407Z,100520.95
2019-03-16T06:35:24.898Z,100519.77
2019-03-16T06:38:04.108Z,100526.09
2019-03-16T06:40:48.086Z,100526.56
2019-03-16T06:43:33.633Z,100540.90
2019-03-16T06:46:17.779Z,100552.72
2019-03-16T06:49:02.142Z,100552.19
2019-03-16T06:51:46.409Z,100550.31
2019-03-16T06:54:30.769Z,100529.33
2019-03-16T06:57:14.967Z,100537.41
2019-03-16T06:59:59.415Z,100537.45
2019-03-16T07:02:43.362Z,100543.32
2019-03-16T07:05:38.408Z,100537.55
2019-03-16T07:08:29.681Z,100539.48
2019-03-16T07:11:13.689Z,100535.34
2019-03-16T07:13:57.954Z,100534.88
2019-03-16T07:16:42.008Z,100556.99
2019-03-16T07:19:25.353Z,100556.16
2019-03-16T07:22:08.989Z,100561.66
2019-03-16T07:24:58.891Z,100562.35
2019-03-16T07:27:31.605Z,100555.72
2019-03-16T07:30:16.087Z,100561.78
2019-03-16T07:32:59.893Z,100565.09
2019-03-16T07:38:28.484Z,100508.55
2019-03-16T07:41:12.652Z,100517.64
2019-03-16T07:43:44.884Z,100550.73
2019-03-16T07:46:28.870Z,100535.72
2019-03-16T07:49:14.640Z,100534.25
2019-03-16T07:51:58.311Z,100509.45
2019-03-16T07:54:42.302Z,100504.55
2019-03-16T07:57:39.556Z,100518.57
2019-03-16T08:00:13.060Z,100541.17
2019-03-16T08:02:58.161Z,100508.81
2019-03-16T08:05:42.154Z,100528.68
2019-03-16T08:08:28.532Z,100529.70
2019-03-16T08:11:13.250Z,100508.17
2019-03-16T08:13:56.740Z,100540.17
2019-03-16T08:16:41.441Z,100515.15
2019-03-16T08:19:25.489Z,100545.34
2019-03-16T08:22:10.571Z,100547.65
2019-03-16T08:24:59.074Z,100522.37
2019-03-16T08:27:53.658Z,100521.34
2019-03-16T08:30:29.539Z,100525.54
2019-03-16T08:33:01.627Z,100540.62
2019-03-16T08:35:45.468Z,100514.31
2019-03-16T08:38:17.641Z,100538.00
2019-03-16T08:41:03.508Z,100508.03
2019-03-16T08:43:47.341Z,100510.80
2019-03-16T08:46:32.741Z,100539.01
2019-03-16T08:49:16.569Z,100510.86
2019-03-16T08:52:00.531Z,100506.62
2019-03-16T08:54:46.248Z,100535.81
2019-03-16T08:57:30.376Z,100519.72
2019-03-16T09:00:15.820Z,100546.66
2019-03-16T09:02:59.482Z,100537.76
2019-03-16T09:05:44.960Z,100558.87
2019-03-16T09:08:29.424Z,100559.52
2019-03-16T09:11:13.270Z,100534.75
2019-03-16T09:13:57.180Z,100519.67
2019-03-16T09:16:29.298Z,100543.70
2019-03-16T09:19:13.929Z,100517.66
2019-03-16T09:21:58.104Z,100519.02
2019-03-16T09:24:42.643Z,100512.59
2019-03-16T09:27:31.382Z,100520.48
2019-03-16T09:30:15.642Z,100542.50
2019-03-16T09:32:59.990Z,100535.25
2019-03-16T09:35:44.683Z,100521.25
2019-03-16T09:38:29.363Z,100553.99
2019-03-16T09:41:13.988Z,100553.00
2019-03-16T09:43:58.273Z,100549.17
2019-03-16T09:46:43.838Z,100515.06
2019-03-16T09:49:28.078Z,100519.73
2019-03-16T09:52:16.045Z,100509.14
2019-03-16T09:55:01.340Z,100533.17
2019-03-16T09:57:46.107Z,100504.75
2019-03-16T10:00:30.361Z,100503.25
2019-03-16T10:03:16.914Z,100491.21
2019-03-16T10:06:01.324Z,100486.69
2019-03-16T10:08:45.665Z,100503.38
2019-03-16T10:11:29.894Z,100495.66
2019-03-16T10:14:02.092Z,100487.53
2019-03-16T10:16:59.731Z,100457.23
2019-03-16T10:19:31.962Z,100477.15
2019-03-16T10:22:15.424Z,100455.56
2019-03-16T10:24:59.230Z,100445.26
2019-03-16T10:27:42.680Z,100448.02
2019-03-16T10:30:29.186Z,100462.97
2019-03-16T10:33:13.554Z,100450.15
2019-03-16T10:35:57.438Z,100453.55
2019-03-16T10:38:41.795Z,100451.98
2019-03-16T10:41:25.672Z,100441.97
2019-03-16T10:44:09.134Z,100465.70
2019-03-16T10:46:55.094Z,100460.45
2019-03-16T10:49:39.586Z,100463.23
2019-03-16T10:52:23.599Z,100421.90
2019-03-16T10:55:07.716Z,100448.83
2019-03-16T10:57:52.152Z,100422.47
2019-03-16T11:00:35.831Z,100439.75
2019-03-16T11:03:20.065Z,100432.00
2019-03-16T11:06:05.425Z,100423.02
2019-03-16T11:08:48.815Z,100418.25
2019-03-16T11:11:21.052Z,100404.38
2019-03-16T11:14:07.085Z,100382.44
2019-03-16T11:16:51.393Z,100394.22
2019-03-16T11:19:35.672Z,100372.16
2019-03-16T11:22:19.455Z,100360.23
2019-03-16T11:25:03.645Z,100357.86
2019-03-16T11:30:51.682Z,100346.45
2019-03-16T11:33:37.370Z,100350.16
2019-03-16T11:39:40.477Z,100356.16
2019-03-16T11:42:24.994Z,100329.92
2019-03-16T11:48:18.229Z,100324.32
2019-03-16T11:57:21.479Z,100303.33
2019-03-16T12:06:28.067Z,100300.86
2019-03-16T12:15:27.765Z,100278.54
2019-03-16T12:24:38.848Z,100250.09
2019-03-16T12:27:11.057Z,100277.26
2019-03-16T12:33:05.649Z,100247.67
2019-03-16T12:35:37.871Z,100254.05
2019-03-16T12:38:22.062Z,100218.45
2019-03-16T12:41:05.717Z,100213.35
2019-03-16T12:43:49.634Z,100245.91
2019-03-16T12:46:34.135Z,100213.03
2019-03-16T12:49:17.951Z,100242.37
2019-03-16T12:52:02.285Z,100234.39
2019-03-16T12:54:46.668Z,100198.84
2019-03-16T12:57:32.438Z,100192.67
2019-03-16T13:00:16.857Z,100190.45
2019-03-16T13:03:00.964Z,100195.81
2019-03-16T13:05:45.367Z,100187.11
2019-03-16T13:08:31.617Z,100203.42
2019-03-16T13:11:16.382Z,100180.90
2019-03-16T13:14:00.952Z,100201.05
2019-03-16T13:16:48.695Z,100193.49
2019-03-16T13:19:34.505Z,100173.33
2019-03-16T13:22:18.030Z,100149.59
2019-03-16T13:25:02.615Z,100149.27
2019-03-16T13:27:46.618Z,100142.38
2019-03-16T13:30:30.869Z,100136.34
2019-03-16T13:33:03.196Z,100134.23
2019-03-16T13:35:47.669Z,100111.70
2019-03-16T13:38:31.261Z,100134.69
2019-03-16T13:41:18.011Z,100102.77
2019-03-16T13:47:19.761Z,100085.19
2019-03-16T13:50:05.485Z,100099.13
2019-03-16T13:52:49.667Z,100068.84
2019-03-16T13:55:34.040Z,100067.95
2019-03-16T13:58:18.035Z,100065.73
2019-03-16T14:00:50.365Z,100094.31
2019-03-16T14:03:47.982Z,100064.88
2019-03-16T14:06:36.399Z,100050.44
2019-03-16T14:09:21.178Z,100053.05
2019-03-16T14:15:22.747Z,100061.56
2019-03-16T14:21:15.513Z,100061.82
2019-03-16T14:26:50.718Z,100054.81
2019-03-16T14:29:35.964Z,100053.75
2019-03-16T14:32:19.597Z,100017.34
2019-03-16T14:35:03.846Z,100020.55
2019-03-16T14:37:47.693Z,100032.89
2019-03-16T14:40:32.348Z,100032.05
2019-03-16T14:43:16.183Z,99993.08
2019-03-16T14:46:00.559Z,100003.96
2019-03-16T14:48:44.626Z,100019.34
2019-03-16T14:51:32.618Z,100024.05
2019-03-16T14:54:17.656Z,100021.21
2019-03-16T14:57:02.079Z,100023.18
2019-03-16T14:59:46.111Z,100019.70
2019-03-16T15:02:30.936Z,100015.05
2019-03-16T15:08:13.711Z,100010.45
2019-03-16T15:10:57.815Z,99980.91
2019-03-16T15:13:41.569Z,100000.88
2019-03-16T15:16:26.143Z,99980.88
2019-03-16T15:19:12.696Z,99972.43
2019-03-16T15:21:57.718Z,99987.67
2019-03-16T15:24:43.743Z,99954.61
2019-03-16T15:27:34.103Z,99957.20
2019-03-16T15:30:22.285Z,99957.75
2019-03-16T15:32:55.051Z,99973.69
2019-03-16T15:45:18.094Z,99939.20
2019-03-16T15:51:16.455Z,99932.53
2019-03-16T15:54:02.042Z,99922.88
2019-03-16T16:03:09.278Z,99941.51
2019-03-16T16:06:13.668Z,99939.87
2019-03-16T16:12:10.834Z,99927.33
2019-03-16T16:14:43.467Z,99934.72
2019-03-16T16:20:38.104Z,99932.87
2019-03-16T16:33:10.328Z,99914.80
2019-03-16T16:35:55.826Z,99914.62
2019-03-16T16:38:39.845Z,99908.85
2019-03-16T16:44:29.099Z,99888.03
2019-03-16T16:47:16.910Z,99876.80
2019-03-16T16:50:07.122Z,99853.67
2019-03-16T17:05:24.524Z,99860.41
2019-03-16T17:08:08.702Z,99846.74
2019-03-16T17:10:42.562Z,99872.35
2019-03-16T17:16:43.852Z,99844.92
2019-03-16T17:19:41.627Z,99872.97
2019-03-16T17:22:32.100Z,99867.47
2019-03-16T17:28:30.025Z,99872.11
2019-03-16T17:31:14.145Z,99845.42
2019-03-16T17:37:04.542Z,99847.99
2019-03-16T17:43:05.684Z,99837.80
2019-03-16T17:45:49.365Z,99858.13
2019-03-16T17:51:52.393Z,99863.69
2019-03-16T17:54:36.091Z,99845.07
2019-03-16T17:57:20.381Z,99863.00
2019-03-16T18:00:04.070Z,99838.50
2019-03-16T18:02:52.641Z,99845.67
2019-03-16T18:05:34.227Z,99867.52
2019-03-16T18:08:18.492Z,99842.63
2019-03-16T18:11:02.335Z,99867.79
2019-03-16T18:13:34.620Z,99862.64
2019-03-16T18:16:18.889Z,99838.08
2019-03-16T18:19:02.953Z,99866.88
2019-03-16T18:21:46.776Z,99862.70
2019-03-16T18:24:31.035Z,99858.84
2019-03-16T18:27:15.484Z,99867.38
2019-03-16T18:29:59.570Z,99839.80
2019-03-16T18:32:43.113Z,99843.20
2019-03-16T18:35:28.575Z,99860.02
2019-03-16T18:38:14.217Z,99837.50
2019-03-16T18:40:58.135Z,99858.30
2019-03-16T18:46:47.985Z,99853.22
2019-03-16T18:49:32.582Z,99853.09
2019-03-16T18:52:16.019Z,99831.17
2019-03-16T18:54:48.158Z,99847.99
2019-03-16T19:00:49.249Z,99815.80
2019-03-16T19:06:34.446Z,99812.63
2019-03-16T19:09:20.706Z,99806.33
2019-03-16T19:18:29.383Z,99822.81
2019-03-16T19:27:31.277Z,99824.49
2019-03-16T19:33:30.917Z,99789.52
2019-03-16T19:39:26.519Z,99801.54
2019-03-16T19:42:10.930Z,99788.47
2019-03-16T19:44:55.393Z,99788.63
2019-03-16T19:47:39.703Z,99781.16
2019-03-16T19:50:23.662Z,99808.46
2019-03-16T19:53:09.738Z,99781.48
2019-03-16T19:55:54.244Z,99806.55
2019-03-16T19:58:45.208Z,99797.19
2019-03-16T20:01:29.987Z,99798.22
2019-03-16T20:04:02.258Z,99799.57
2019-03-16T20:06:46.294Z,99768.93
2019-03-16T20:09:30.770Z,99774.32
2019-03-16T20:12:14.527Z,99789.53
2019-03-16T20:18:15.506Z,99762.15
2019-03-16T20:20:59.905Z,99762.96
2019-03-16T20:26:59.763Z,99768.17
2019-03-16T20:29:43.653Z,99771.27
2019-03-16T20:32:28.382Z,99773.03
2019-03-16T20:35:12.062Z,99771.63
2019-03-16T20:37:55.803Z,99789.70
2019-03-16T20:40:40.071Z,99773.45
2019-03-16T20:43:13.068Z,99789.27
2019-03-16T20:45:57.377Z,99756.33
2019-03-16T20:51:51.808Z,99788.20
2019-03-16T20:54:36.329Z,99756.38
2019-03-16T20:57:50.163Z,99787.23
2019-03-16T21:00:39.766Z,99777.86
2019-03-16T21:03:27.865Z,99781.31
2019-03-16T21:06:12.817Z,99772.00
2019-03-16T21:11:59.483Z,99757.37
2019-03-16T21:14:44.074Z,99752.61
2019-03-16T21:17:28.565Z,99741.56
2019-03-16T21:20:12.595Z,99749.47
2019-03-16T21:22:45.053Z,99757.02
2019-03-16T21:28:35.002Z,99731.73
2019-03-16T21:31:25.132Z,99757.34
2019-03-16T21:34:09.380Z,99721.89
2019-03-16T21:36:53.304Z,99720.70
2019-03-16T21:39:40.385Z,99745.63
2019-03-16T21:42:30.913Z,99712.05
2019-03-16T21:45:15.455Z,99742.16
2019-03-16T21:47:59.448Z,99735.20
2019-03-16T21:50:44.022Z,99727.01
2019-03-16T21:53:35.064Z,99718.20
2019-03-16T22:08:46.809Z,99690.41
2019-03-16T22:14:26.857Z,99680.30
2019-03-16T22:17:17.524Z,99675.61
2019-03-16T22:20:07.544Z,99646.74
2019-03-16T22:22:52.377Z,99641.30
2019-03-16T22:28:43.374Z,99632.67
2019-03-16T22:31:27.848Z,99664.50
2019-03-16T22:34:11.916Z,99644.48
2019-03-16T22:37:01.790Z,99662.06
2019-03-16T22:40:11.977Z,99624.31
2019-03-16T22:55:40.826Z,99614.28
2019-03-16T22:58:31.074Z,99647.70
2019-03-16T23:08:05.877Z,99615.80
2019-03-16T23:10:53.724Z,99585.75
2019-03-16T23:23:12.057Z,99611.02
2019-03-16T23:32:51.576Z,99607.31
2019-03-16T23:39:20.659Z,99594.32
2019-03-16T23:45:23.230Z,99581.59
2019-03-16T23:55:08.110Z,99572.39
